Crabtree, Canada
Current Conditions -  °F | °C
As of 12:00 PM on Saturday 22 Nov 2014 (Local Time) from CYHU Reporting Station
Overcast Overcast  
Wind Chill: 22°   Ceiling: 4000
Heat Index: 34°   Visibility: 9mi
Dew Point: 18°   Wind: 20mph
Humidity: 52%   Direction: 230°SW
Pressure: 30.01"   Gusts: NA
Location:  45.97°N, 73.47°W
Report Text: CYHU 221700Z AUTO 23017KT 9SM OVC040 01/M08 A3001 RMK SLP163
Loading
Personal Weather Stations






























Interactive Weather Map New forecast layout! Learn more

10-Day Weather Forecast

Advertisements
Track Severe Weather on mobile